Time;durP1;ratioP1;P1;durP2;ratioP2;P2;SDS_P1;SDS_P2;PMS_P1;PMS_P2;Temp;Humidity;BMP_temperature;BMP_pressure;BME280_temperature;BME280_humidity;BME280_pressure;Samples;Min_cycle;Max_cycle;Signal;HPM_P1;HPM_P2
2022/12/24 00:02:09;;;;;;;1.43;0.40;;;14.30;99.90;;;14.04;59.03;100332.63;4852333;28;107178;-51
2022/12/24 00:04:35;;;;;;;2.63;0.53;;;14.40;99.90;;;14.05;59.07;100339.66;4859942;28;99740;-52
2022/12/24 00:07:01;;;;;;;3.07;0.77;;;14.40;99.90;;;14.05;58.59;100329.03;4852074;28;97333;-51
2022/12/24 00:09:27;;;;;;;3.73;0.90;;;14.40;99.90;;;13.92;59.24;100337.66;4856641;28;105623;-52
2022/12/24 00:11:53;;;;;;;2.07;0.63;;;14.30;99.90;;;13.99;58.48;100336.38;4853619;28;109262;-50
2022/12/24 00:14:18;;;;;;;1.57;0.50;;;14.40;99.90;;;14.03;58.75;100346.78;4857256;28;99285;-52
2022/12/24 00:16:44;;;;;;;3.10;0.80;;;14.40;99.90;;;13.99;58.80;100348.78;4856750;28;104398;-53
2022/12/24 00:19:10;;;;;;;4.13;0.80;;;14.40;99.90;;;13.98;58.81;100358.53;4850315;28;98609;-50
2022/12/24 00:21:35;;;;;;;2.87;0.50;;;14.40;99.90;;;13.96;58.91;100356.91;4851439;28;99076;-49
2022/12/24 00:24:04;;;;;;;6.17;0.83;;;14.30;99.90;;;13.88;59.00;100373.19;4850363;28;109465;-51
2022/12/24 00:26:30;;;;;;;8.10;0.50;;;14.30;99.90;;;13.87;59.08;100363.53;4849751;28;98570;-54
2022/12/24 00:28:56;;;;;;;1.83;0.40;;;14.30;99.90;;;13.87;59.21;100375.94;4851112;28;96791;-53
2022/12/24 00:31:22;;;;;;;1.07;0.67;;;14.30;99.90;;;13.75;59.32;100373.97;4854121;28;98518;-50
2022/12/24 00:33:48;;;;;;;3.50;0.97;;;14.10;99.90;;;13.81;59.32;100363.88;4850334;28;97671;-53
2022/12/24 00:36:15;;;;;;;16.57;1.00;;;14.20;99.90;;;13.80;59.24;100362.19;4850524;28;97406;-54
2022/12/24 00:38:41;;;;;;;1.77;0.67;;;14.20;99.90;;;13.74;59.49;100361.63;4853934;28;103189;-53
2022/12/24 00:41:23;;;;;;;3.10;0.67;;;14.10;99.90;;;13.76;59.15;100365.09;4851483;28;97434;-53
2022/12/24 00:43:59;;;;;;;4.90;1.20;;;14.10;99.90;;;13.86;59.22;100359.19;4848650;28;98345;-52
2022/12/24 00:46:28;;;;;;;6.90;0.97;;;14.20;99.90;;;13.95;58.57;100355.19;4853488;28;97707;-52
2022/12/24 00:48:54;;;;;;;3.93;0.53;;;14.30;99.90;;;13.96;58.91;100363.06;4848313;28;98263;-49
2022/12/24 00:51:22;;;;;;;7.10;0.63;;;14.30;99.90;;;13.85;59.06;100359.25;4853396;28;97124;-53
2022/12/24 00:53:49;;;;;;;2.00;0.40;;;14.30;99.90;;;13.91;59.46;100361.59;4850791;28;99190;-52
2022/12/24 00:56:15;;;;;;;3.77;0.63;;;14.20;99.90;;;13.80;60.49;100367.47;4853280;28;99471;-50
2022/12/24 00:58:41;;;;;;;3.90;1.13;;;14.20;99.90;;;13.81;60.63;100377.13;4853411;28;102589;-53
2022/12/24 01:01:07;;;;;;;4.53;0.50;;;14.20;99.90;;;13.75;61.04;100380.13;4851591;28;99968;-47
2022/12/24 01:03:34;;;;;;;2.90;0.83;;;14.10;99.90;;;13.71;61.41;100391.81;4851402;28;97451;-54
2022/12/24 01:06:14;;;;;;;2.03;1.23;;;14.10;99.90;;;13.76;61.26;100381.84;4849111;28;98871;-51
2022/12/24 01:08:41;;;;;;;4.93;0.40;;;14.10;99.90;;;13.66;61.78;100376.16;4852486;28;97384;-52
2022/12/24 01:11:08;;;;;;;1.53;1.17;;;14.00;99.90;;;13.65;61.77;100386.84;4848065;28;97409;-51
2022/12/24 01:13:35;;;;;;;3.80;0.73;;;14.00;99.90;;;13.73;61.53;100383.78;4851329;28;99300;-53
2022/12/24 01:16:01;;;;;;;0.83;0.40;;;14.10;99.90;;;13.70;61.71;100403.34;4847978;28;99886;-52
2022/12/24 01:18:27;;;;;;;0.50;0.43;;;14.00;99.90;;;13.70;62.20;100403.34;4852162;28;96837;-51
2022/12/24 01:21:02;;;;;;;1.43;0.30;;;14.00;99.90;;;13.57;62.85;100394.31;4849558;28;105170;-51
2022/12/24 01:23:30;;;;;;;4.97;0.87;;;13.90;99.90;;;13.60;62.38;100415.38;4851494;28;97087;-55
2022/12/24 01:26:00;;;;;;;1.87;0.53;;;13.90;99.90;;;13.54;62.83;100418.34;4827473;28;102664;-53
2022/12/24 01:28:26;;;;;;;3.77;0.90;;;13.90;99.90;;;13.55;61.63;100420.06;4852272;28;99632;-48
2022/12/24 01:30:52;;;;;;;5.73;0.83;;;13.90;99.90;;;13.57;62.67;100418.19;4845886;28;98776;-51
2022/12/24 01:33:19;;;;;;;3.60;1.10;;;14.00;99.90;;;13.48;62.39;100406.28;4837720;28;96996;-49
2022/12/24 01:35:44;;;;;;;3.33;0.80;;;13.90;99.90;;;13.55;61.72;100414.75;4851827;28;97310;-54
2022/12/24 01:38:12;;;;;;;0.77;0.47;;;13.90;99.90;;;13.63;61.80;100423.19;4849498;28;97578;-47
2022/12/24 01:43:27;;;;;;;0.73;0.43;;;14.00;99.90;;;13.60;61.79;100423.34;4846252;28;101010;-54
2022/12/24 01:45:59;;;;;;;2.60;0.50;;;14.00;99.90;;;13.62;61.96;100421.47;4845439;28;96903;-51
2022/12/24 01:48:51;;;;;;;8.00;0.80;;;14.00;99.90;;;13.63;61.43;100424.03;4852192;28;99608;-49
2022/12/24 01:51:39;;;;;;;3.43;1.23;;;14.00;99.90;;;13.52;61.37;100414.91;4847880;28;100402;-50
2022/12/24 01:54:21;;;;;;;3.37;0.70;;;14.00;99.90;;;13.62;61.10;100426.75;4846916;28;98581;-49
2022/12/24 01:56:54;;;;;;;4.73;0.47;;;14.00;99.90;;;13.65;60.89;100429.25;4854887;28;97726;-51
2022/12/24 01:59:21;;;;;;;3.03;0.70;;;14.10;99.90;;;13.69;60.35;100425.50;4851523;28;97793;-54
2022/12/24 02:01:50;;;;;;;4.87;1.30;;;14.10;99.90;;;13.73;60.24;100428.84;4852679;28;97262;-49
2022/12/24 02:04:45;;;;;;;0.60;0.47;;;14.10;99.90;;;13.65;60.23;100431.91;4846812;28;101867;-53
2022/12/24 02:07:11;;;;;;;7.67;0.70;;;14.10;99.90;;;13.71;60.01;100428.91;4848315;28;97351;-53
2022/12/24 02:09:38;;;;;;;1.70;0.90;;;14.10;99.90;;;13.68;60.01;100442.34;4850251;28;97127;-51
2022/12/24 02:12:05;;;;;;;8.43;1.13;;;14.10;99.90;;;13.71;60.02;100452.78;4847537;28;96991;-52
2022/12/24 02:14:33;;;;;;;1.83;0.57;;;14.10;99.90;;;13.69;59.98;100452.84;4847481;28;97514;-47
2022/12/24 02:17:22;;;;;;;5.93;0.97;;;14.10;99.90;;;13.62;60.39;100450.63;4829786;28;101937;-46
2022/12/24 02:20:35;;;;;;;2.37;0.60;;;14.10;99.90;;;13.61;60.11;100459.50;4833659;28;97558;-49
2022/12/24 02:23:12;;;;;;;2.00;0.70;;;14.00;99.90;;;13.54;60.67;100455.44;4845340;28;97483;-50
2022/12/24 02:26:16;;;;;;;1.13;0.40;;;13.90;99.90;;;13.35;61.17;100453.72;4851588;28;97069;-47
2022/12/24 02:29:26;;;;;;;2.10;0.47;;;13.80;99.90;;;13.33;61.12;100462.69;4849158;28;100614;-50
2022/12/24 02:32:01;;;;;;;2.67;0.70;;;13.70;99.90;;;13.35;60.89;100466.97;4867256;28;97304;-53
2022/12/24 02:34:40;;;;;;;3.77;0.50;;;13.70;99.90;;;13.39;61.24;100472.97;4885878;28;97383;-51
2022/12/24 02:37:22;;;;;;;0.83;0.40;;;13.80;99.90;;;13.39;60.97;100467.66;4877161;28;99825;-53
2022/12/24 02:39:56;;;;;;;4.20;1.07;;;13.80;99.90;;;13.37;61.09;100481.00;4861528;28;97259;-50
2022/12/24 02:42:28;;;;;;;2.70;0.57;;;13.80;99.90;;;13.37;61.02;100481.00;4874592;28;97065;-51
2022/12/24 02:45:13;;;;;;;2.47;0.70;;;13.80;99.90;;;13.37;61.03;100475.69;4873406;28;97113;-51
2022/12/24 02:47:40;;;;;;;2.53;0.40;;;13.80;99.90;;;13.38;60.96;100493.31;4863115;28;97196;-52
2022/12/24 02:50:09;;;;;;;2.23;0.53;;;13.80;99.90;;;13.37;61.13;100496.88;4879694;28;97084;-52
2022/12/24 02:52:40;;;;;;;1.40;0.60;;;13.80;99.90;;;13.49;60.80;100499.88;4866126;28;97254;-53
2022/12/24 02:55:38;;;;;;;1.97;0.37;;;13.90;99.90;;;13.50;61.13;100485.69;4873545;28;97253;-51
2022/12/24 02:58:19;;;;;;;3.47;0.80;;;13.90;99.90;;;13.48;61.27;100487.56;4873049;28;97046;-56
2022/12/24 03:01:21;;;;;;;1.43;0.67;;;13.90;99.90;;;13.56;60.34;100496.81;4874298;28;97468;-51
2022/12/24 03:03:53;;;;;;;2.03;0.57;;;13.90;99.90;;;13.57;60.98;100498.53;4873604;28;97109;-54
2022/12/24 03:06:40;;;;;;;1.40;0.50;;;13.90;99.90;;;13.54;61.43;100504.00;4876662;28;97151;-54
2022/12/24 03:09:37;;;;;;;4.53;0.90;;;14.00;99.90;;;13.53;61.12;100517.31;4876415;28;97505;-53
2022/12/24 03:12:10;;;;;;;2.97;0.40;;;13.90;99.90;;;13.52;61.59;100499.72;4875930;28;97229;-49
2022/12/24 03:14:39;;;;;;;3.03;0.40;;;13.90;99.90;;;13.50;62.13;100498.94;4879419;28;97018;-51
2022/12/24 03:17:07;;;;;;;2.40;0.83;;;13.90;99.90;;;13.54;62.56;100508.44;4863737;28;97334;-52
2022/12/24 03:19:34;;;;;;;3.20;1.10;;;14.00;99.90;;;13.51;63.24;100503.28;4884479;28;97358;-49
2022/12/24 03:22:03;;;;;;;2.07;0.57;;;13.90;99.90;;;13.60;62.02;100508.16;4878649;28;97530;-49
2022/12/24 03:24:29;;;;;;;1.70;0.60;;;14.00;99.90;;;13.65;61.88;100511.41;4866404;28;97423;-52
2022/12/24 03:26:55;;;;;;;2.70;0.67;;;14.00;99.90;;;13.54;62.81;100508.44;4876999;28;102312;-48
2022/12/24 03:29:21;;;;;;;2.50;0.70;;;14.00;99.90;;;13.64;61.84;100520.31;4885650;28;97725;-49
2022/12/24 03:31:51;;;;;;;1.33;0.57;;;14.00;99.90;;;13.65;61.21;100511.41;4879790;28;97293;-47
2022/12/24 03:34:18;;;;;;;3.63;0.60;;;14.00;99.90;;;13.57;62.58;100524.19;4877748;28;97290;-53
2022/12/24 03:36:46;;;;;;;1.07;0.40;;;13.90;99.90;;;13.64;61.99;100530.91;4879721;28;97329;-50
2022/12/24 03:39:11;;;;;;;2.83;0.83;;;14.00;99.90;;;13.70;61.65;100525.28;4876508;28;97221;-52
2022/12/24 03:41:38;;;;;;;3.00;0.43;;;14.10;99.90;;;13.71;62.59;100542.91;4880430;28;97136;-51
2022/12/24 03:44:04;;;;;;;3.30;0.50;;;14.00;99.90;;;13.58;63.38;100532.03;4876687;28;99141;-51
2022/12/24 03:46:30;;;;;;;0.20;0.10;;;13.90;99.90;;;13.64;62.69;100525.59;4880205;28;97197;-49
2022/12/24 03:48:56;;;;;;;2.80;0.63;;;14.00;99.90;;;13.68;62.24;100532.44;4875398;28;101206;-52
2022/12/24 03:51:25;;;;;;;1.00;0.57;;;14.00;99.90;;;13.61;63.17;100531.06;4883037;28;97014;-49
2022/12/24 03:53:56;;;;;;;1.27;0.33;;;14.00;99.90;;;13.60;63.28;100539.94;4877103;28;97453;-51
2022/12/24 03:56:23;;;;;;;3.17;0.40;;;14.00;99.90;;;13.58;62.86;100536.50;4881243;28;97613;-53
2022/12/24 03:58:49;;;;;;;3.03;0.60;;;14.00;99.90;;;13.56;62.19;100523.31;4874861;28;98816;-58
2022/12/24 04:01:17;;;;;;;0.97;0.27;;;14.00;99.90;;;13.62;61.96;100527.47;4878045;28;96900;-52
2022/12/24 04:03:43;;;;;;;0.77;0.50;;;14.00;99.90;;;13.65;62.01;100532.63;4878579;28;97010;-52
2022/12/24 04:06:13;;;;;;;3.63;0.50;;;14.00;99.90;;;13.69;61.45;100539.47;4876842;28;97191;-48
2022/12/24 04:08:39;;;;;;;2.10;0.30;;;14.00;99.90;;;13.70;61.57;100536.72;4884328;28;99772;-52
2022/12/24 04:11:08;;;;;;;0.53;0.40;;;14.10;99.90;;;13.69;60.81;100540.31;4876952;28;96948;-49
2022/12/24 04:13:34;;;;;;;1.27;0.23;;;14.10;99.90;;;13.81;60.70;100544.16;4879131;28;97497;-48
2022/12/24 04:16:05;;;;;;;1.50;0.23;;;14.10;99.90;;;13.82;60.93;100545.88;4877513;28;97123;-50
2022/12/24 04:18:31;;;;;;;2.33;0.73;;;14.20;99.90;;;13.85;59.75;100545.72;4880124;28;99773;-49
2022/12/24 04:20:57;;;;;;;1.10;0.60;;;14.20;99.90;;;13.87;60.63;100543.84;4877044;28;97063;-50
2022/12/24 04:23:24;;;;;;;0.17;0.17;;;14.10;99.90;;;13.91;60.04;100561.31;4885692;28;97307;-49
2022/12/24 04:25:50;;;;;;;0.50;0.20;;;14.20;99.90;;;13.84;60.58;100561.69;4874770;28;97644;-51
2022/12/24 04:28:17;;;;;;;1.17;0.30;;;14.10;99.90;;;13.89;59.81;100562.34;4883723;28;108194;-50
2022/12/24 04:30:43;;;;;;;0.57;0.13;;;14.20;99.90;;;13.88;60.12;100566.75;4879915;28;97422;-48
2022/12/24 04:33:09;;;;;;;0.40;0.20;;;14.20;99.90;;;13.90;60.23;100572.88;4879774;28;97187;-50
2022/12/24 04:35:42;;;;;;;0.70;0.30;;;14.20;99.90;;;13.87;59.77;100554.44;4880199;28;97067;-52
2022/12/24 04:38:09;;;;;;;0.50;0.20;;;14.20;99.90;;;13.77;60.11;100566.47;4876061;28;97104;-52
2022/12/24 04:40:35;;;;;;;0.80;0.40;;;14.10;99.90;;;13.77;60.28;100574.41;4880391;28;101463;-52
2022/12/24 04:43:01;;;;;;;1.00;0.30;;;14.10;99.90;;;13.68;61.00;100582.81;4878863;28;96778;-52
2022/12/24 04:45:27;;;;;;;2.93;0.30;;;14.00;99.90;;;13.56;61.82;100570.16;4876822;28;97256;-54
2022/12/24 04:47:53;;;;;;;0.10;0.10;;;13.90;99.90;;;13.60;61.13;100577.06;4882032;28;108910;-48
2022/12/24 04:50:19;;;;;;;2.93;0.67;;;13.90;99.90;;;13.63;61.41;100574.25;4878424;28;110158;-47
2022/12/24 04:52:44;;;;;;;0.50;0.30;;;14.00;99.90;;;13.62;61.54;100580.47;4881849;28;97850;-47
2022/12/24 04:55:10;;;;;;;1.47;0.13;;;13.90;99.90;;;13.56;61.74;100580.75;4886253;28;97958;-51
2022/12/24 04:57:36;;;;;;;0.93;0.30;;;13.90;99.90;;;13.58;61.96;100584.19;4874693;28;109382;-47
2022/12/24 05:00:05;;;;;;;0.30;0.20;;;14.00;99.90;;;13.58;61.00;100589.50;4881299;28;96886;-52
2022/12/24 05:02:31;;;;;;;0.40;0.10;;;13.90;99.90;;;13.62;61.60;100591.94;4885391;28;96686;-50
2022/12/24 05:04:56;;;;;;;0.63;0.40;;;14.00;99.90;;;13.72;60.25;100587.03;4876377;28;105030;-47
2022/12/24 05:07:22;;;;;;;0.63;0.40;;;14.10;99.90;;;13.80;60.55;100590.16;4877010;28;104028;-53
2022/12/24 05:09:48;;;;;;;7.17;0.70;;;14.10;99.90;;;13.81;60.23;100594.53;4876318;28;98045;-49
2022/12/24 05:12:14;;;;;;;2.30;0.30;;;14.10;99.90;;;13.82;60.91;100601.53;4879689;28;96946;-52
2022/12/24 05:14:41;;;;;;;0.90;0.10;;;14.10;99.90;;;13.81;60.81;100597.19;4887179;28;97427;-52
2022/12/24 05:17:07;;;;;;;3.73;0.37;;;14.00;99.90;;;13.81;61.22;100596.31;4880112;28;101752;-52
2022/12/24 05:19:32;;;;;;;0.73;0.20;;;14.10;99.90;;;13.85;60.37;100601.38;4884651;28;97317;-51
2022/12/24 05:27:26;;;;;;;3.53;0.57;;;14.10;99.90;;;13.80;60.07;100605.22;4871536;28;100408;-51
2022/12/24 05:29:52;;;;;;;2.43;0.53;;;14.00;99.90;;;13.86;60.58;100605.75;4882031;28;114703;-53
2022/12/24 05:32:18;;;;;;;1.07;0.33;;;14.10;99.90;;;13.87;60.35;100615.41;4878654;28;97303;-50
2022/12/24 05:34:44;;;;;;;2.50;0.63;;;14.10;99.90;;;13.88;60.99;100609.19;4881957;28;107929;-49
2022/12/24 05:37:09;;;;;;;1.93;0.77;;;14.10;99.90;;;13.96;59.71;100611.47;4877112;28;111087;-52
2022/12/24 05:39:35;;;;;;;2.60;0.30;;;14.20;99.90;;;13.92;61.33;100615.22;4878908;28;102474;-50
2022/12/24 05:42:01;;;;;;;0.87;0.20;;;14.00;99.90;;;13.87;60.94;100615.41;4881649;28;97122;-52
2022/12/24 05:44:27;;;;;;;2.00;0.53;;;14.00;99.90;;;13.90;60.57;100620.59;4884584;28;97344;-52
2022/12/24 05:46:52;;;;;;;4.60;1.63;;;14.00;99.90;;;13.87;61.38;100612.75;4876679;28;105281;-50
2022/12/24 05:49:18;;;;;;;1.20;0.57;;;14.00;99.90;;;13.87;60.49;100617.22;4881150;28;109854;-51
2022/12/24 05:51:44;;;;;;;5.20;0.47;;;14.00;99.90;;;13.88;60.30;100619.78;4886759;28;99442;-54
2022/12/24 05:54:10;;;;;;;5.27;0.40;;;14.10;99.90;;;13.92;60.79;100621.38;4867715;28;97612;-52
2022/12/24 05:56:36;;;;;;;0.80;0.40;;;14.10;99.90;;;13.92;60.92;100621.38;4883092;28;107536;-52
2022/12/24 05:59:02;;;;;;;2.60;0.70;;;14.10;99.90;;;13.87;61.68;100626.03;4881026;28;97831;-53
2022/12/24 06:01:28;;;;;;;2.07;0.70;;;14.00;99.90;;;13.81;61.94;100634.28;4891084;28;97224;-48
2022/12/24 06:03:56;;;;;;;1.73;0.27;;;13.90;99.90;;;13.75;62.28;100629.31;4881158;28;96887;-52
2022/12/24 06:06:25;;;;;;;0.73;0.40;;;13.80;99.90;;;13.65;63.08;100638.63;4881727;28;97498;-55
2022/12/24 06:08:53;;;;;;;2.33;0.77;;;13.70;99.90;;;13.57;63.24;100640.78;4885646;28;97579;-53
2022/12/24 06:11:23;;;;;;;1.33;0.40;;;13.60;99.90;;;13.56;63.04;100645.22;4879564;28;97408;-53
2022/12/24 06:13:49;;;;;;;2.87;0.40;;;13.60;99.90;;;13.53;63.76;100639.22;4878682;28;98201;-59
2022/12/24 06:16:18;;;;;;;3.23;1.17;;;13.50;99.90;;;13.53;62.58;100649.81;4865472;28;102785;-48
2022/12/24 06:18:45;;;;;;;4.93;0.80;;;13.60;99.90;;;13.49;63.60;100657.06;4878025;28;97149;-51
2022/12/24 06:21:11;;;;;;;1.27;0.30;;;13.50;99.90;;;13.45;63.79;100657.25;4885047;28;96990;-53
2022/12/24 06:23:40;;;;;;;0.93;0.30;;;13.40;99.90;;;13.44;63.38;100642.28;4881550;28;97478;-53
2022/12/24 06:26:08;;;;;;;0.73;0.40;;;13.50;99.90;;;13.42;63.25;100646.81;4880097;28;97535;-51
2022/12/24 06:28:37;;;;;;;0.80;0.53;;;13.50;99.90;;;13.46;62.72;100657.22;4863773;28;97473;-54
2022/12/24 06:31:05;;;;;;;0.57;0.30;;;13.50;99.90;;;13.48;62.74;100667.75;4885231;28;97265;-53
2022/12/24 06:33:32;;;;;;;0.63;0.40;;;13.60;99.90;;;13.46;63.43;100662.50;4883998;28;97153;-49
2022/12/24 06:35:59;;;;;;;4.13;0.53;;;13.60;99.90;;;13.52;63.06;100658.69;4878175;28;97140;-50
2022/12/24 06:38:24;;;;;;;0.60;0.40;;;13.70;99.90;;;13.54;62.85;100654.19;4881081;28;96852;-49
2022/12/24 06:40:50;;;;;;;0.47;0.40;;;13.70;99.90;;;13.53;63.28;100661.28;4877634;28;97185;-51
2022/12/24 06:43:16;;;;;;;1.80;0.40;;;13.60;99.90;;;13.50;63.59;100665.88;4880664;28;97457;-50
2022/12/24 06:45:46;;;;;;;2.73;0.77;;;13.50;99.90;;;13.55;62.48;100663.84;4879585;28;97372;-52
2022/12/24 06:48:13;;;;;;;1.03;0.47;;;13.60;99.90;;;13.58;62.71;100669.00;4882981;28;97435;-53
2022/12/24 06:50:40;;;;;;;4.23;0.67;;;13.70;99.90;;;13.55;62.30;100675.31;4881670;28;105582;-53
2022/12/24 06:53:06;;;;;;;1.07;0.40;;;13.70;99.90;;;13.61;61.21;100684.78;4885064;28;97570;-54
2022/12/24 06:55:32;;;;;;;2.80;0.70;;;13.70;99.90;;;13.65;62.13;100691.66;4888547;28;98782;-48
2022/12/24 06:57:58;;;;;;;0.97;0.50;;;13.80;99.90;;;13.61;63.06;100690.06;4869918;28;97253;-48
2022/12/24 07:00:24;;;;;;;3.10;0.57;;;13.70;99.90;;;13.68;61.26;100707.41;4889435;28;96832;-53
2022/12/24 07:02:50;;;;;;;1.27;0.83;;;13.80;99.90;;;13.72;61.80;100719.56;4876212;28;96881;-52
2022/12/24 07:05:16;;;;;;;1.57;0.73;;;13.80;99.90;;;13.68;62.15;100712.69;4877858;28;99444;-50
2022/12/24 07:07:44;;;;;;;1.80;0.50;;;13.80;99.90;;;13.72;60.91;100708.97;4883546;28;97527;-49
2022/12/24 07:10:13;;;;;;;12.27;0.93;;;13.90;99.90;;;13.85;60.12;100709.22;4875391;28;104247;-48
2022/12/24 07:12:38;;;;;;;5.70;1.23;;;14.00;99.90;;;13.90;60.09;100713.41;4877356;28;96835;-52
2022/12/24 07:15:05;;;;;;;6.10;0.70;;;14.00;99.90;;;13.88;60.83;100701.97;4875513;28;97371;-49
2022/12/24 07:17:31;;;;;;;1.47;0.70;;;14.10;99.90;;;13.89;60.52;100716.97;4882556;28;99357;-50
2022/12/24 07:19:57;;;;;;;2.07;0.70;;;14.20;99.90;;;13.86;60.61;100711.81;4875446;28;107945;-53
2022/12/24 07:22:23;;;;;;;2.80;0.80;;;14.10;99.90;;;13.96;59.63;100707.78;4884644;28;99174;-53
2022/12/24 07:24:49;;;;;;;7.83;1.07;;;14.20;99.90;;;13.98;59.43;100711.22;4880378;28;98780;-51
2022/12/24 07:27:15;;;;;;;2.33;0.60;;;14.30;99.90;;;14.03;59.10;100710.97;4875741;28;102323;-49
2022/12/24 07:29:41;;;;;;;2.70;0.50;;;14.30;99.90;;;13.97;60.05;100709.50;4877508;28;97322;-52
2022/12/24 07:32:07;;;;;;;5.43;0.70;;;14.20;99.90;;;13.99;59.61;100707.63;4876026;28;97558;-51
2022/12/24 07:34:33;;;;;;;6.40;1.13;;;14.10;99.90;;;13.96;59.97;100723.69;4883733;28;97534;-54
2022/12/24 07:36:59;;;;;;;1.40;0.83;;;14.10;99.90;;;13.96;59.64;100729.00;4877531;28;102061;-50
2022/12/24 07:39:24;;;;;;;5.83;0.77;;;14.10;99.90;;;13.88;60.47;100731.16;4878808;28;97228;-50
2022/12/24 07:41:50;;;;;;;1.50;0.60;;;14.00;99.90;;;13.88;60.24;100730.28;4872820;28;97037;-51
2022/12/24 07:44:16;;;;;;;2.77;1.13;;;14.00;99.90;;;13.84;60.41;100737.53;4877302;28;110080;-51
2022/12/24 07:46:43;;;;;;;12.47;0.90;;;13.90;99.90;;;13.85;60.45;100744.56;4883045;28;116502;-52
2022/12/24 07:49:09;;;;;;;1.63;0.77;;;13.90;99.90;;;13.85;59.68;100747.22;4883060;28;97745;-47
2022/12/24 07:51:36;;;;;;;0.40;0.40;;;14.00;99.90;;;13.87;59.47;100741.84;4882891;28;97416;-52
2022/12/24 07:54:03;;;;;;;5.90;0.50;;;14.00;99.90;;;13.79;60.35;100763.41;4879754;28;97328;-49
2022/12/24 07:56:30;;;;;;;3.30;0.80;;;14.00;99.90;;;13.88;59.00;100760.31;4887536;28;99228;-50
2022/12/24 07:58:56;;;;;;;3.47;0.80;;;14.10;99.90;;;13.91;59.29;100757.53;4881693;28;97201;-52
2022/12/24 08:01:22;;;;;;;2.83;0.43;;;14.10;99.90;;;13.90;59.84;100753.19;4884727;28;101231;-52
2022/12/24 08:03:50;;;;;;;2.23;0.70;;;14.10;99.90;;;13.90;59.62;100766.44;4885843;28;98336;-50
2022/12/24 08:06:16;;;;;;;4.67;0.87;;;14.10;99.90;;;14.02;58.58;100764.09;4879208;28;102742;-52
2022/12/24 08:08:42;;;;;;;1.07;0.40;;;14.20;99.90;;;14.05;58.71;100758.69;4883894;28;97269;-53
2022/12/24 08:11:08;;;;;;;6.80;0.60;;;14.20;99.90;;;13.97;59.36;100761.69;4880784;28;103158;-54
2022/12/24 08:13:34;;;;;;;3.57;0.63;;;14.10;99.90;;;13.87;60.24;100777.16;4881023;28;98383;-52
2022/12/24 08:16:00;;;;;;;4.53;0.63;;;13.90;99.90;;;13.90;59.45;100777.03;4877202;28;98174;-54
2022/12/24 08:18:26;;;;;;;3.40;0.70;;;14.00;99.90;;;13.87;59.94;100777.16;4880977;28;97119;-50
2022/12/24 08:20:51;;;;;;;3.23;0.77;;;14.10;99.90;;;13.88;59.92;100786.81;4879458;28;97207;-51
2022/12/24 08:23:17;;;;;;;3.97;0.70;;;14.10;99.90;;;13.88;59.57;100786.81;4881372;28;97642;-54
2022/12/24 08:25:46;;;;;;;0.80;0.70;;;14.10;99.90;;;13.91;59.99;100794.66;4878247;28;97393;-49
2022/12/24 08:28:15;;;;;;;2.00;0.67;;;14.10;99.90;;;13.90;60.15;100787.66;4877475;28;96791;-51
2022/12/24 08:30:42;;;;;;;5.50;1.00;;;14.00;99.90;;;13.84;60.95;100787.91;4879729;28;96982;-51
2022/12/24 08:33:09;;;;;;;0.30;0.30;;;13.90;99.90;;;13.86;59.63;100788.69;4876329;28;97694;-51
2022/12/24 08:35:35;;;;;;;5.50;0.87;;;13.90;99.90;;;13.82;61.25;100797.75;4880678;28;97496;-53
2022/12/24 08:38:01;;;;;;;3.50;0.50;;;13.90;99.90;;;13.80;60.71;100791.66;4876162;28;97583;-50
2022/12/24 08:40:27;;;;;;;0.80;0.80;;;13.80;99.90;;;13.83;60.69;100786.19;4881323;28;97288;-54
2022/12/24 08:42:53;;;;;;;1.43;0.60;;;13.90;99.90;;;13.77;61.51;100805.06;4876128;28;96858;-48
2022/12/24 08:45:19;;;;;;;3.40;0.93;;;13.80;99.90;;;13.75;61.62;100793.66;4879749;28;97295;-47
2022/12/24 08:47:45;;;;;;;2.27;0.83;;;13.70;99.90;;;13.69;61.97;100804.53;4880393;28;97417;-52
2022/12/24 08:50:11;;;;;;;8.20;1.33;;;13.70;99.90;;;13.68;62.11;100802.81;4877474;28;97060;-51
2022/12/24 08:52:37;;;;;;;3.00;0.50;;;13.70;99.90;;;13.65;62.25;100808.28;4882883;28;98087;-52
2022/12/24 08:55:04;;;;;;;8.60;0.90;;;13.60;99.90;;;13.58;62.72;100807.66;4875394;28;97036;-48
2022/12/24 08:57:30;;;;;;;3.83;0.80;;;13.60;99.90;;;13.64;62.19;100801.25;4885596;28;96807;-54
2022/12/24 08:59:56;;;;;;;3.43;0.80;;;13.70;99.90;;;13.61;62.42;100812.00;4866276;28;98167;-48
2022/12/24 09:02:22;;;;;;;0.77;0.43;;;13.60;99.90;;;13.63;62.37;100813.63;4857966;28;98694;-52
2022/12/24 09:04:48;;;;;;;0.93;0.73;;;13.70;99.90;;;13.65;62.58;100813.56;4857733;28;98957;-50
2022/12/24 09:07:14;;;;;;;2.50;0.50;;;13.70;99.90;;;13.67;62.32;100817.00;4853484;28;98504;-48
2022/12/24 09:09:40;;;;;;;1.47;0.60;;;13.70;99.90;;;13.72;61.44;100825.59;4858866;28;101448;-51
2022/12/24 09:12:07;;;;;;;9.60;0.90;;;13.70;99.90;;;13.69;62.49;100829.25;4853379;28;97897;-50
2022/12/24 09:14:33;;;;;;;15.33;6.37;;;13.80;99.90;;;13.68;62.54;100835.50;4859322;28;97902;-50
2022/12/24 09:16:59;;;;;;;5.93;1.20;;;13.70;99.90;;;13.67;62.60;100838.22;4851686;28;101317;-54
2022/12/24 09:19:26;;;;;;;2.13;1.10;;;13.70;99.90;;;13.68;62.43;100839.94;4860278;28;97973;-49
2022/12/24 09:21:52;;;;;;;3.20;1.50;;;13.70;99.90;;;13.68;62.20;100842.59;4856763;28;99035;-50
2022/12/24 09:24:18;;;;;;;6.87;0.67;;;13.70;99.90;;;13.65;61.13;100848.03;4855672;28;98330;-53
2022/12/24 09:26:47;;;;;;;0.23;0.20;;;13.70;99.90;;;13.66;62.49;100858.56;4856804;28;100151;-54
2022/12/24 09:29:15;;;;;;;0.97;0.60;;;13.70;99.90;;;13.69;62.25;100865.50;4853234;28;98237;-53
2022/12/24 09:31:41;;;;;;;2.83;0.60;;;13.70;99.90;;;13.69;61.57;100862.84;4854260;28;97523;-53
2022/12/24 09:34:07;;;;;;;5.93;1.37;;;13.70;99.90;;;13.71;62.30;100871.59;4831747;28;97969;-53
2022/12/24 09:36:34;;;;;;;4.00;0.90;;;13.70;99.90;;;13.70;62.57;100875.19;4853258;28;97394;-53
2022/12/24 09:38:59;;;;;;;3.50;0.73;;;13.70;99.90;;;13.69;62.29;100881.41;4850776;28;99880;-50
2022/12/24 09:41:50;;;;;;;2.07;0.50;;;13.70;99.90;;;13.74;61.21;100887.34;4855197;28;100356;-50
2022/12/24 09:44:40;;;;;;;0.53;0.53;;;13.80;99.90;;;13.79;62.09;100895.97;4852607;28;101833;-53
2022/12/24 09:47:45;;;;;;;2.13;0.70;;;13.80;99.90;;;13.73;62.92;100905.97;4848379;28;97204;-54
2022/12/24 09:51:04;;;;;;;3.83;0.83;;;13.80;99.90;;;13.79;61.19;100895.97;4851523;28;97321;-51
2022/12/24 09:53:35;;;;;;;1.50;0.50;;;13.80;99.90;;;13.81;62.40;100902.06;4827669;28;103620;-52
2022/12/24 09:56:08;;;;;;;2.93;0.90;;;13.90;99.90;;;13.82;62.25;100893.19;4849701;28;98482;-51
2022/12/24 09:58:45;;;;;;;2.83;0.93;;;13.90;99.90;;;13.80;62.90;100903.00;4854162;28;96921;-54
2022/12/24 10:01:16;;;;;;;1.60;1.00;;;13.90;99.90;;;13.80;62.80;100896.84;4832866;28;98035;-52
2022/12/24 10:03:43;;;;;;;4.10;0.90;;;13.80;99.90;;;13.81;62.80;100902.06;4853754;28;97678;-49
2022/12/24 10:06:23;;;;;;;1.43;0.97;;;13.90;99.90;;;13.73;63.21;100901.53;4850549;28;99525;-49
2022/12/24 10:09:23;;;;;;;1.40;0.50;;;13.80;99.90;;;13.77;63.16;100905.81;4854243;28;97310;-50
2022/12/24 10:12:22;;;;;;;6.77;0.77;;;13.80;99.90;;;13.85;61.99;100911.59;4847695;28;97819;-52
2022/12/24 10:15:07;;;;;;;0.60;0.40;;;14.00;99.90;;;13.87;62.31;100915.03;4849316;28;100509;-52
2022/12/24 10:17:55;;;;;;;3.40;0.63;;;13.90;99.90;;;14.00;59.62;100921.50;4857863;28;102425;-48
2022/12/24 10:20:29;;;;;;;2.43;0.60;;;14.10;99.90;;;14.07;61.12;100921.25;4854430;28;97427;-51
2022/12/24 10:23:29;;;;;;;1.83;0.73;;;14.20;99.90;;;14.06;61.91;100919.53;4855501;28;97751;-53
2022/12/24 10:26:43;;;;;;;2.80;0.40;;;14.20;99.90;;;14.12;60.79;100924.53;4852211;28;97900;-52
2022/12/24 10:29:20;;;;;;;1.83;0.90;;;14.20;99.90;;;14.12;61.79;100919.25;4842370;28;97674;-51
2022/12/24 10:32:06;;;;;;;2.90;0.37;;;14.20;99.90;;;14.17;60.75;100919.88;4859624;28;97911;-54